sensor_id;sensor_type;location;lat;lon;timestamp;P1;durP1;ratioP1;P2;durP2;ratioP2
17488;SDS011;8861;52.644;4.734;2024-01-30T00:01:17;50.30;;;29.43;;
17488;SDS011;8861;52.644;4.734;2024-01-30T00:03:44;47.93;;;28.80;;
17488;SDS011;8861;52.644;4.734;2024-01-30T00:06:11;44.03;;;27.10;;
17488;SDS011;8861;52.644;4.734;2024-01-30T00:08:40;45.10;;;27.63;;
17488;SDS011;8861;52.644;4.734;2024-01-30T00:11:07;51.37;;;30.73;;
17488;SDS011;8861;52.644;4.734;2024-01-30T00:13:34;42.40;;;27.67;;
17488;SDS011;8861;52.644;4.734;2024-01-30T00:16:01;45.43;;;28.53;;
17488;SDS011;8861;52.644;4.734;2024-01-30T00:18:29;49.90;;;30.00;;
17488;SDS011;8861;52.644;4.734;2024-01-30T00:20:56;49.27;;;29.93;;
17488;SDS011;8861;52.644;4.734;2024-01-30T00:23:23;51.33;;;30.73;;
17488;SDS011;8861;52.644;4.734;2024-01-30T00:25:52;49.37;;;31.67;;
17488;SDS011;8861;52.644;4.734;2024-01-30T00:28:19;48.03;;;30.17;;
17488;SDS011;8861;52.644;4.734;2024-01-30T00:30:46;48.13;;;30.17;;
17488;SDS011;8861;52.644;4.734;2024-01-30T00:33:13;46.80;;;29.60;;
17488;SDS011;8861;52.644;4.734;2024-01-30T00:35:41;50.63;;;31.40;;
17488;SDS011;8861;52.644;4.734;2024-01-30T00:38:08;45.63;;;28.47;;
17488;SDS011;8861;52.644;4.734;2024-01-30T00:40:35;46.37;;;29.47;;
17488;SDS011;8861;52.644;4.734;2024-01-30T00:43:04;46.10;;;28.63;;
17488;SDS011;8861;52.644;4.734;2024-01-30T00:45:30;45.20;;;28.13;;
17488;SDS011;8861;52.644;4.734;2024-01-30T00:47:58;47.20;;;27.47;;
17488;SDS011;8861;52.644;4.734;2024-01-30T00:50:24;45.13;;;27.10;;
17488;SDS011;8861;52.644;4.734;2024-01-30T00:52:51;42.57;;;25.70;;
17488;SDS011;8861;52.644;4.734;2024-01-30T00:55:19;48.97;;;27.53;;
17488;SDS011;8861;52.644;4.734;2024-01-30T00:57:46;45.23;;;27.53;;
17488;SDS011;8861;52.644;4.734;2024-01-30T01:00:15;46.83;;;27.33;;
17488;SDS011;8861;52.644;4.734;2024-01-30T01:02:46;41.87;;;25.87;;
17488;SDS011;8861;52.644;4.734;2024-01-30T01:05:13;38.30;;;24.47;;
17488;SDS011;8861;52.644;4.734;2024-01-30T01:07:40;42.90;;;26.83;;
17488;SDS011;8861;52.644;4.734;2024-01-30T01:10:07;41.63;;;25.33;;
17488;SDS011;8861;52.644;4.734;2024-01-30T01:12:36;37.73;;;24.00;;
17488;SDS011;8861;52.644;4.734;2024-01-30T01:15:03;37.67;;;23.53;;
17488;SDS011;8861;52.644;4.734;2024-01-30T01:17:35;39.83;;;23.97;;
17488;SDS011;8861;52.644;4.734;2024-01-30T01:20:03;42.13;;;24.47;;
17488;SDS011;8861;52.644;4.734;2024-01-30T01:22:31;41.77;;;24.30;;
17488;SDS011;8861;52.644;4.734;2024-01-30T01:25:01;40.90;;;24.97;;
17488;SDS011;8861;52.644;4.734;2024-01-30T01:27:28;42.37;;;25.73;;
17488;SDS011;8861;52.644;4.734;2024-01-30T01:29:55;39.30;;;24.33;;
17488;SDS011;8861;52.644;4.734;2024-01-30T01:32:21;38.90;;;24.20;;
17488;SDS011;8861;52.644;4.734;2024-01-30T01:34:50;40.40;;;23.70;;
17488;SDS011;8861;52.644;4.734;2024-01-30T01:37:17;40.60;;;24.80;;
17488;SDS011;8861;52.644;4.734;2024-01-30T01:39:46;37.70;;;24.60;;
17488;SDS011;8861;52.644;4.734;2024-01-30T01:42:13;41.77;;;25.00;;
17488;SDS011;8861;52.644;4.734;2024-01-30T01:44:40;39.03;;;24.03;;
17488;SDS011;8861;52.644;4.734;2024-01-30T01:47:07;35.50;;;23.70;;
17488;SDS011;8861;52.644;4.734;2024-01-30T01:49:35;41.53;;;24.17;;
17488;SDS011;8861;52.644;4.734;2024-01-30T01:52:04;41.27;;;24.83;;
17488;SDS011;8861;52.644;4.734;2024-01-30T01:54:31;40.43;;;24.07;;
17488;SDS011;8861;52.644;4.734;2024-01-30T01:56:59;41.17;;;24.70;;
17488;SDS011;8861;52.644;4.734;2024-01-30T01:59:26;43.23;;;25.23;;
17488;SDS011;8861;52.644;4.734;2024-01-30T02:01:54;39.10;;;24.40;;
17488;SDS011;8861;52.644;4.734;2024-01-30T02:04:22;35.53;;;23.27;;
17488;SDS011;8861;52.644;4.734;2024-01-30T02:06:49;39.77;;;24.17;;
17488;SDS011;8861;52.644;4.734;2024-01-30T02:09:17;39.97;;;24.83;;
17488;SDS011;8861;52.644;4.734;2024-01-30T02:11:45;40.67;;;25.23;;
17488;SDS011;8861;52.644;4.734;2024-01-30T02:14:12;37.70;;;23.97;;
17488;SDS011;8861;52.644;4.734;2024-01-30T02:16:39;43.07;;;25.57;;
17488;SDS011;8861;52.644;4.734;2024-01-30T02:19:06;40.13;;;24.53;;
17488;SDS011;8861;52.644;4.734;2024-01-30T02:21:34;36.20;;;22.60;;
17488;SDS011;8861;52.644;4.734;2024-01-30T02:24:01;40.37;;;23.67;;
17488;SDS011;8861;52.644;4.734;2024-01-30T02:26:32;37.70;;;23.60;;
17488;SDS011;8861;52.644;4.734;2024-01-30T02:28:59;38.97;;;25.47;;
17488;SDS011;8861;52.644;4.734;2024-01-30T02:31:26;42.57;;;25.50;;
17488;SDS011;8861;52.644;4.734;2024-01-30T02:33:53;36.80;;;23.50;;
17488;SDS011;8861;52.644;4.734;2024-01-30T02:36:20;35.13;;;23.83;;
17488;SDS011;8861;52.644;4.734;2024-01-30T02:38:49;40.57;;;24.90;;
17488;SDS011;8861;52.644;4.734;2024-01-30T02:41:15;36.17;;;23.47;;
17488;SDS011;8861;52.644;4.734;2024-01-30T02:43:42;39.80;;;24.53;;
17488;SDS011;8861;52.644;4.734;2024-01-30T02:46:09;37.50;;;24.27;;
17488;SDS011;8861;52.644;4.734;2024-01-30T02:48:36;39.63;;;24.30;;
17488;SDS011;8861;52.644;4.734;2024-01-30T02:51:04;41.57;;;25.07;;
17488;SDS011;8861;52.644;4.734;2024-01-30T02:53:31;40.13;;;25.23;;
17488;SDS011;8861;52.644;4.734;2024-01-30T02:56:00;42.30;;;25.57;;
17488;SDS011;8861;52.644;4.734;2024-01-30T02:58:28;39.33;;;24.87;;
17488;SDS011;8861;52.644;4.734;2024-01-30T03:00:55;39.57;;;25.03;;
17488;SDS011;8861;52.644;4.734;2024-01-30T03:03:22;37.53;;;25.17;;
17488;SDS011;8861;52.644;4.734;2024-01-30T03:05:49;37.20;;;23.53;;
17488;SDS011;8861;52.644;4.734;2024-01-30T03:08:16;39.67;;;24.43;;
17488;SDS011;8861;52.644;4.734;2024-01-30T03:10:43;37.97;;;24.83;;
17488;SDS011;8861;52.644;4.734;2024-01-30T03:13:12;40.23;;;25.17;;
17488;SDS011;8861;52.644;4.734;2024-01-30T03:15:39;39.23;;;25.20;;
17488;SDS011;8861;52.644;4.734;2024-01-30T03:18:06;40.30;;;24.60;;
17488;SDS011;8861;52.644;4.734;2024-01-30T03:20:33;37.77;;;24.63;;
17488;SDS011;8861;52.644;4.734;2024-01-30T03:23:01;39.67;;;24.93;;
17488;SDS011;8861;52.644;4.734;2024-01-30T03:25:28;38.70;;;24.63;;
17488;SDS011;8861;52.644;4.734;2024-01-30T03:27:55;37.87;;;24.33;;
17488;SDS011;8861;52.644;4.734;2024-01-30T03:30:24;36.97;;;23.87;;
17488;SDS011;8861;52.644;4.734;2024-01-30T03:32:51;37.43;;;24.47;;
17488;SDS011;8861;52.644;4.734;2024-01-30T03:35:19;41.37;;;24.23;;
17488;SDS011;8861;52.644;4.734;2024-01-30T03:37:45;38.03;;;24.77;;
17488;SDS011;8861;52.644;4.734;2024-01-30T03:40:13;35.37;;;23.20;;
17488;SDS011;8861;52.644;4.734;2024-01-30T03:42:40;36.70;;;23.03;;
17488;SDS011;8861;52.644;4.734;2024-01-30T03:45:08;39.90;;;24.30;;
17488;SDS011;8861;52.644;4.734;2024-01-30T03:47:37;36.00;;;24.53;;
17488;SDS011;8861;52.644;4.734;2024-01-30T03:50:04;36.80;;;23.23;;
17488;SDS011;8861;52.644;4.734;2024-01-30T03:52:32;35.37;;;23.63;;
17488;SDS011;8861;52.644;4.734;2024-01-30T03:54:59;35.90;;;23.77;;
17488;SDS011;8861;52.644;4.734;2024-01-30T03:57:26;38.10;;;23.90;;
17488;SDS011;8861;52.644;4.734;2024-01-30T03:59:54;39.07;;;23.80;;
17488;SDS011;8861;52.644;4.734;2024-01-30T04:02:21;38.00;;;23.60;;
17488;SDS011;8861;52.644;4.734;2024-01-30T04:04:49;34.63;;;23.20;;
17488;SDS011;8861;52.644;4.734;2024-01-30T04:07:16;39.23;;;24.20;;
17488;SDS011;8861;52.644;4.734;2024-01-30T04:09:45;36.13;;;22.87;;
17488;SDS011;8861;52.644;4.734;2024-01-30T04:12:12;38.03;;;22.73;;
17488;SDS011;8861;52.644;4.734;2024-01-30T04:14:39;36.77;;;23.07;;
17488;SDS011;8861;52.644;4.734;2024-01-30T04:17:06;34.40;;;23.10;;
17488;SDS011;8861;52.644;4.734;2024-01-30T04:19:36;38.90;;;24.10;;
17488;SDS011;8861;52.644;4.734;2024-01-30T04:22:05;37.00;;;22.37;;
17488;SDS011;8861;52.644;4.734;2024-01-30T04:24:33;31.30;;;21.63;;
17488;SDS011;8861;52.644;4.734;2024-01-30T04:27:00;36.53;;;22.70;;
17488;SDS011;8861;52.644;4.734;2024-01-30T04:29:27;36.63;;;23.07;;
17488;SDS011;8861;52.644;4.734;2024-01-30T04:31:55;33.03;;;22.10;;
17488;SDS011;8861;52.644;4.734;2024-01-30T04:34:21;34.83;;;22.20;;
17488;SDS011;8861;52.644;4.734;2024-01-30T04:36:49;35.47;;;22.50;;
17488;SDS011;8861;52.644;4.734;2024-01-30T04:39:17;35.37;;;21.33;;
17488;SDS011;8861;52.644;4.734;2024-01-30T04:41:45;34.53;;;21.47;;
17488;SDS011;8861;52.644;4.734;2024-01-30T04:44:12;33.23;;;21.93;;
17488;SDS011;8861;52.644;4.734;2024-01-30T04:46:39;35.27;;;21.87;;
17488;SDS011;8861;52.644;4.734;2024-01-30T04:49:06;31.13;;;20.33;;
17488;SDS011;8861;52.644;4.734;2024-01-30T04:51:33;34.33;;;22.17;;
17488;SDS011;8861;52.644;4.734;2024-01-30T04:54:00;33.57;;;21.20;;
17488;SDS011;8861;52.644;4.734;2024-01-30T04:56:29;34.50;;;22.57;;
17488;SDS011;8861;52.644;4.734;2024-01-30T04:58:56;37.67;;;21.00;;
17488;SDS011;8861;52.644;4.734;2024-01-30T05:01:23;33.73;;;21.23;;
17488;SDS011;8861;52.644;4.734;2024-01-30T05:03:50;30.80;;;19.93;;
17488;SDS011;8861;52.644;4.734;2024-01-30T05:06:23;34.73;;;21.17;;
17488;SDS011;8861;52.644;4.734;2024-01-30T05:08:51;35.80;;;21.10;;
17488;SDS011;8861;52.644;4.734;2024-01-30T05:11:18;32.07;;;21.07;;
17488;SDS011;8861;52.644;4.734;2024-01-30T05:13:48;33.50;;;22.20;;
17488;SDS011;8861;52.644;4.734;2024-01-30T05:16:15;30.27;;;20.47;;
17488;SDS011;8861;52.644;4.734;2024-01-30T05:18:42;33.17;;;21.07;;
17488;SDS011;8861;52.644;4.734;2024-01-30T05:21:10;34.03;;;20.73;;
17488;SDS011;8861;52.644;4.734;2024-01-30T05:23:37;33.80;;;19.73;;
17488;SDS011;8861;52.644;4.734;2024-01-30T05:26:04;30.40;;;20.67;;
17488;SDS011;8861;52.644;4.734;2024-01-30T05:28:31;31.63;;;20.53;;
17488;SDS011;8861;52.644;4.734;2024-01-30T05:31:00;33.80;;;20.80;;
17488;SDS011;8861;52.644;4.734;2024-01-30T05:33:27;30.93;;;19.83;;
17488;SDS011;8861;52.644;4.734;2024-01-30T05:35:54;32.13;;;19.73;;
17488;SDS011;8861;52.644;4.734;2024-01-30T05:38:21;32.83;;;20.40;;
17488;SDS011;8861;52.644;4.734;2024-01-30T05:40:48;31.23;;;20.70;;
17488;SDS011;8861;52.644;4.734;2024-01-30T05:43:15;33.57;;;20.80;;
17488;SDS011;8861;52.644;4.734;2024-01-30T05:45:42;33.37;;;19.37;;
17488;SDS011;8861;52.644;4.734;2024-01-30T05:48:11;32.10;;;20.80;;
17488;SDS011;8861;52.644;4.734;2024-01-30T05:50:38;31.37;;;20.17;;
17488;SDS011;8861;52.644;4.734;2024-01-30T05:53:05;31.77;;;20.10;;
17488;SDS011;8861;52.644;4.734;2024-01-30T05:55:32;30.77;;;19.53;;
17488;SDS011;8861;52.644;4.734;2024-01-30T05:57:59;31.73;;;20.27;;
17488;SDS011;8861;52.644;4.734;2024-01-30T06:00:26;29.90;;;19.50;;
17488;SDS011;8861;52.644;4.734;2024-01-30T06:02:54;32.07;;;21.13;;
17488;SDS011;8861;52.644;4.734;2024-01-30T06:05:22;28.23;;;19.03;;
17488;SDS011;8861;52.644;4.734;2024-01-30T06:07:49;30.33;;;19.43;;
17488;SDS011;8861;52.644;4.734;2024-01-30T06:10:16;30.23;;;19.43;;
17488;SDS011;8861;52.644;4.734;2024-01-30T06:12:43;32.00;;;21.13;;
17488;SDS011;8861;52.644;4.734;2024-01-30T06:15:11;30.73;;;19.53;;
17488;SDS011;8861;52.644;4.734;2024-01-30T06:17:38;33.53;;;20.10;;
17488;SDS011;8861;52.644;4.734;2024-01-30T06:20:06;30.43;;;20.30;;
17488;SDS011;8861;52.644;4.734;2024-01-30T06:22:35;30.43;;;20.00;;
17488;SDS011;8861;52.644;4.734;2024-01-30T06:25:02;30.37;;;19.30;;
17488;SDS011;8861;52.644;4.734;2024-01-30T06:27:29;33.67;;;20.53;;
17488;SDS011;8861;52.644;4.734;2024-01-30T06:29:56;32.37;;;20.63;;
17488;SDS011;8861;52.644;4.734;2024-01-30T06:32:23;32.13;;;19.73;;
17488;SDS011;8861;52.644;4.734;2024-01-30T06:34:50;32.17;;;20.27;;
17488;SDS011;8861;52.644;4.734;2024-01-30T06:37:17;31.13;;;19.70;;
17488;SDS011;8861;52.644;4.734;2024-01-30T06:39:46;28.03;;;19.60;;
17488;SDS011;8861;52.644;4.734;2024-01-30T06:42:13;30.30;;;19.50;;
17488;SDS011;8861;52.644;4.734;2024-01-30T06:44:41;32.10;;;19.23;;
17488;SDS011;8861;52.644;4.734;2024-01-30T06:47:08;27.23;;;18.67;;
17488;SDS011;8861;52.644;4.734;2024-01-30T06:49:36;28.77;;;18.63;;
17488;SDS011;8861;52.644;4.734;2024-01-30T06:52:04;30.83;;;19.17;;
17488;SDS011;8861;52.644;4.734;2024-01-30T06:54:31;27.40;;;17.10;;
17488;SDS011;8861;52.644;4.734;2024-01-30T06:57:00;28.80;;;18.37;;
17488;SDS011;8861;52.644;4.734;2024-01-30T06:59:27;28.73;;;18.33;;
17488;SDS011;8861;52.644;4.734;2024-01-30T07:01:54;28.40;;;17.10;;
17488;SDS011;8861;52.644;4.734;2024-01-30T07:04:21;27.63;;;18.30;;
17488;SDS011;8861;52.644;4.734;2024-01-30T07:06:48;26.73;;;18.13;;
17488;SDS011;8861;52.644;4.734;2024-01-30T07:09:15;30.73;;;18.97;;
17488;SDS011;8861;52.644;4.734;2024-01-30T07:11:42;26.90;;;17.47;;
17488;SDS011;8861;52.644;4.734;2024-01-30T07:14:11;28.70;;;17.20;;
17488;SDS011;8861;52.644;4.734;2024-01-30T07:16:37;28.33;;;17.30;;
17488;SDS011;8861;52.644;4.734;2024-01-30T07:19:05;26.43;;;16.70;;
17488;SDS011;8861;52.644;4.734;2024-01-30T07:21:34;26.37;;;16.37;;
17488;SDS011;8861;52.644;4.734;2024-01-30T07:24:01;25.73;;;16.03;;
17488;SDS011;8861;52.644;4.734;2024-01-30T07:26:28;27.87;;;17.27;;
17488;SDS011;8861;52.644;4.734;2024-01-30T07:28:55;25.63;;;16.67;;
17488;SDS011;8861;52.644;4.734;2024-01-30T07:31:24;29.67;;;16.53;;
17488;SDS011;8861;52.644;4.734;2024-01-30T07:33:51;29.07;;;16.33;;
17488;SDS011;8861;52.644;4.734;2024-01-30T07:36:18;29.03;;;16.07;;
17488;SDS011;8861;52.644;4.734;2024-01-30T07:38:45;29.53;;;16.27;;
17488;SDS011;8861;52.644;4.734;2024-01-30T07:41:12;27.47;;;16.23;;
17488;SDS011;8861;52.644;4.734;2024-01-30T07:43:39;30.00;;;17.17;;
17488;SDS011;8861;52.644;4.734;2024-01-30T07:46:06;32.17;;;16.43;;
17488;SDS011;8861;52.644;4.734;2024-01-30T07:48:35;28.47;;;15.77;;
17488;SDS011;8861;52.644;4.734;2024-01-30T07:51:02;30.57;;;16.70;;
17488;SDS011;8861;52.644;4.734;2024-01-30T07:53:29;31.63;;;16.73;;
17488;SDS011;8861;52.644;4.734;2024-01-30T07:55:56;31.33;;;16.50;;
17488;SDS011;8861;52.644;4.734;2024-01-30T07:58:23;29.50;;;16.20;;
17488;SDS011;8861;52.644;4.734;2024-01-30T08:00:52;30.03;;;16.13;;
17488;SDS011;8861;52.644;4.734;2024-01-30T08:03:19;33.60;;;15.97;;
17488;SDS011;8861;52.644;4.734;2024-01-30T08:05:48;27.17;;;15.60;;
17488;SDS011;8861;52.644;4.734;2024-01-30T08:08:15;30.30;;;15.97;;
17488;SDS011;8861;52.644;4.734;2024-01-30T08:10:42;29.07;;;16.87;;
17488;SDS011;8861;52.644;4.734;2024-01-30T08:13:09;32.93;;;16.50;;
17488;SDS011;8861;52.644;4.734;2024-01-30T08:15:36;29.37;;;16.10;;
17488;SDS011;8861;52.644;4.734;2024-01-30T08:18:03;27.17;;;15.70;;
17488;SDS011;8861;52.644;4.734;2024-01-30T08:20:32;33.90;;;16.63;;
17488;SDS011;8861;52.644;4.734;2024-01-30T08:23:00;30.40;;;15.93;;
17488;SDS011;8861;52.644;4.734;2024-01-30T08:25:27;26.27;;;15.57;;
17488;SDS011;8861;52.644;4.734;2024-01-30T08:27:55;24.20;;;14.87;;
17488;SDS011;8861;52.644;4.734;2024-01-30T08:30:22;29.80;;;15.10;;
17488;SDS011;8861;52.644;4.734;2024-01-30T08:32:49;25.63;;;12.57;;
17488;SDS011;8861;52.644;4.734;2024-01-30T08:35:17;25.77;;;12.53;;
17488;SDS011;8861;52.644;4.734;2024-01-30T08:37:44;29.07;;;13.30;;
17488;SDS011;8861;52.644;4.734;2024-01-30T08:40:13;31.00;;;12.53;;
17488;SDS011;8861;52.644;4.734;2024-01-30T08:42:40;24.67;;;12.63;;
17488;SDS011;8861;52.644;4.734;2024-01-30T08:45:07;24.73;;;12.23;;
17488;SDS011;8861;52.644;4.734;2024-01-30T08:47:35;27.33;;;11.17;;
17488;SDS011;8861;52.644;4.734;2024-01-30T08:50:02;24.33;;;11.43;;
17488;SDS011;8861;52.644;4.734;2024-01-30T08:52:30;29.20;;;11.17;;
17488;SDS011;8861;52.644;4.734;2024-01-30T08:54:58;27.73;;;11.40;;
17488;SDS011;8861;52.644;4.734;2024-01-30T08:57:26;22.63;;;11.10;;
17488;SDS011;8861;52.644;4.734;2024-01-30T08:59:56;31.80;;;10.90;;
17488;SDS011;8861;52.644;4.734;2024-01-30T09:02:23;27.60;;;10.77;;
17488;SDS011;8861;52.644;4.734;2024-01-30T09:04:50;31.17;;;12.07;;
17488;SDS011;8861;52.644;4.734;2024-01-30T09:07:17;26.70;;;10.43;;
17488;SDS011;8861;52.644;4.734;2024-01-30T09:09:44;28.57;;;10.53;;
17488;SDS011;8861;52.644;4.734;2024-01-30T09:12:11;29.00;;;9.17;;
17488;SDS011;8861;52.644;4.734;2024-01-30T09:14:42;21.23;;;8.67;;
17488;SDS011;8861;52.644;4.734;2024-01-30T09:17:09;31.53;;;9.43;;
17488;SDS011;8861;52.644;4.734;2024-01-30T09:19:36;22.93;;;9.17;;
17488;SDS011;8861;52.644;4.734;2024-01-30T09:22:04;22.93;;;8.23;;
17488;SDS011;8861;52.644;4.734;2024-01-30T09:24:31;23.80;;;7.57;;
17488;SDS011;8861;52.644;4.734;2024-01-30T09:26:58;22.30;;;6.50;;
17488;SDS011;8861;52.644;4.734;2024-01-30T09:29:25;27.03;;;7.67;;
17488;SDS011;8861;52.644;4.734;2024-01-30T09:31:54;30.33;;;6.40;;
17488;SDS011;8861;52.644;4.734;2024-01-30T09:34:21;17.40;;;6.03;;
17488;SDS011;8861;52.644;4.734;2024-01-30T09:36:48;20.13;;;5.63;;
17488;SDS011;8861;52.644;4.734;2024-01-30T09:39:15;22.50;;;5.70;;
17488;SDS011;8861;52.644;4.734;2024-01-30T09:41:45;34.60;;;7.00;;
17488;SDS011;8861;52.644;4.734;2024-01-30T09:44:15;30.13;;;6.60;;
17488;SDS011;8861;52.644;4.734;2024-01-30T09:46:43;19.67;;;6.00;;
17488;SDS011;8861;52.644;4.734;2024-01-30T09:49:13;23.00;;;7.20;;
17488;SDS011;8861;52.644;4.734;2024-01-30T09:51:40;26.30;;;6.70;;
17488;SDS011;8861;52.644;4.734;2024-01-30T09:54:08;24.93;;;6.80;;
17488;SDS011;8861;52.644;4.734;2024-01-30T09:56:37;29.80;;;7.30;;
17488;SDS011;8861;52.644;4.734;2024-01-30T09:59:04;22.57;;;6.27;;
17488;SDS011;8861;52.644;4.734;2024-01-30T10:01:31;23.17;;;6.03;;
17488;SDS011;8861;52.644;4.734;2024-01-30T10:04:00;23.10;;;5.47;;
17488;SDS011;8861;52.644;4.734;2024-01-30T10:06:29;25.43;;;5.53;;
17488;SDS011;8861;52.644;4.734;2024-01-30T10:08:56;19.73;;;5.07;;
17488;SDS011;8861;52.644;4.734;2024-01-30T10:11:23;18.93;;;4.50;;
17488;SDS011;8861;52.644;4.734;2024-01-30T10:13:49;28.27;;;5.17;;
17488;SDS011;8861;52.644;4.734;2024-01-30T10:16:16;26.10;;;4.13;;
17488;SDS011;8861;52.644;4.734;2024-01-30T10:18:44;23.90;;;3.87;;
17488;SDS011;8861;52.644;4.734;2024-01-30T10:21:12;20.57;;;3.87;;
17488;SDS011;8861;52.644;4.734;2024-01-30T10:23:40;20.40;;;3.70;;
17488;SDS011;8861;52.644;4.734;2024-01-30T10:26:09;20.57;;;3.53;;
17488;SDS011;8861;52.644;4.734;2024-01-30T10:28:36;19.73;;;3.43;;
17488;SDS011;8861;52.644;4.734;2024-01-30T10:31:03;15.30;;;2.93;;
17488;SDS011;8861;52.644;4.734;2024-01-30T10:33:31;13.73;;;2.70;;
17488;SDS011;8861;52.644;4.734;2024-01-30T10:36:00;19.17;;;3.60;;
17488;SDS011;8861;52.644;4.734;2024-01-30T10:38:29;16.37;;;3.17;;
17488;SDS011;8861;52.644;4.734;2024-01-30T10:40:58;14.47;;;2.83;;
17488;SDS011;8861;52.644;4.734;2024-01-30T10:43:30;16.17;;;3.00;;
17488;SDS011;8861;52.644;4.734;2024-01-30T10:46:01;13.80;;;2.67;;
17488;SDS011;8861;52.644;4.734;2024-01-30T10:48:33;16.33;;;3.00;;
17488;SDS011;8861;52.644;4.734;2024-01-30T10:51:07;17.80;;;2.60;;
17488;SDS011;8861;52.644;4.734;2024-01-30T10:53:35;17.77;;;2.90;;
17488;SDS011;8861;52.644;4.734;2024-01-30T10:56:05;14.47;;;2.93;;
17488;SDS011;8861;52.644;4.734;2024-01-30T10:58:33;13.80;;;2.80;;
17488;SDS011;8861;52.644;4.734;2024-01-30T11:01:00;14.00;;;3.00;;
17488;SDS011;8861;52.644;4.734;2024-01-30T11:03:28;13.17;;;2.60;;
17488;SDS011;8861;52.644;4.734;2024-01-30T11:05:58;14.97;;;2.83;;
17488;SDS011;8861;52.644;4.734;2024-01-30T11:08:26;13.23;;;2.50;;
17488;SDS011;8861;52.644;4.734;2024-01-30T11:10:55;18.27;;;2.80;;
17488;SDS011;8861;52.644;4.734;2024-01-30T11:13:26;12.97;;;2.57;;
17488;SDS011;8861;52.644;4.734;2024-01-30T11:15:54;11.60;;;2.13;;
17488;SDS011;8861;52.644;4.734;2024-01-30T11:18:24;13.60;;;2.43;;
17488;SDS011;8861;52.644;4.734;2024-01-30T11:20:52;11.07;;;2.80;;
17488;SDS011;8861;52.644;4.734;2024-01-30T11:23:22;18.30;;;3.07;;
17488;SDS011;8861;52.644;4.734;2024-01-30T11:25:49;17.63;;;3.03;;
17488;SDS011;8861;52.644;4.734;2024-01-30T11:28:18;17.70;;;2.93;;
17488;SDS011;8861;52.644;4.734;2024-01-30T11:30:48;16.37;;;3.60;;
17488;SDS011;8861;52.644;4.734;2024-01-30T11:33:26;19.67;;;3.20;;
17488;SDS011;8861;52.644;4.734;2024-01-30T11:35:56;14.00;;;3.13;;
17488;SDS011;8861;52.644;4.734;2024-01-30T11:38:24;15.07;;;3.23;;
17488;SDS011;8861;52.644;4.734;2024-01-30T11:40:53;14.50;;;2.90;;
17488;SDS011;8861;52.644;4.734;2024-01-30T11:43:21;13.83;;;3.10;;
17488;SDS011;8861;52.644;4.734;2024-01-30T11:45:50;13.37;;;2.87;;
17488;SDS011;8861;52.644;4.734;2024-01-30T11:48:17;19.23;;;3.60;;
17488;SDS011;8861;52.644;4.734;2024-01-30T11:50:44;18.47;;;3.97;;
17488;SDS011;8861;52.644;4.734;2024-01-30T11:53:11;17.33;;;3.33;;
17488;SDS011;8861;52.644;4.734;2024-01-30T11:55:38;23.07;;;3.77;;
17488;SDS011;8861;52.644;4.734;2024-01-30T11:58:05;15.43;;;3.40;;
17488;SDS011;8861;52.644;4.734;2024-01-30T12:00:33;22.43;;;3.50;;
17488;SDS011;8861;52.644;4.734;2024-01-30T12:03:02;23.53;;;4.43;;
17488;SDS011;8861;52.644;4.734;2024-01-30T12:05:32;24.53;;;4.23;;
17488;SDS011;8861;52.644;4.734;2024-01-30T12:08:01;14.20;;;3.27;;
17488;SDS011;8861;52.644;4.734;2024-01-30T12:10:29;18.50;;;3.60;;
17488;SDS011;8861;52.644;4.734;2024-01-30T12:12:56;26.20;;;4.00;;
17488;SDS011;8861;52.644;4.734;2024-01-30T12:15:23;19.17;;;4.00;;
17488;SDS011;8861;52.644;4.734;2024-01-30T12:17:51;20.40;;;4.20;;
17488;SDS011;8861;52.644;4.734;2024-01-30T12:20:20;22.27;;;4.17;;
17488;SDS011;8861;52.644;4.734;2024-01-30T12:22:48;18.23;;;3.80;;
17488;SDS011;8861;52.644;4.734;2024-01-30T12:25:17;18.37;;;3.70;;
17488;SDS011;8861;52.644;4.734;2024-01-30T12:27:45;20.53;;;4.17;;
17488;SDS011;8861;52.644;4.734;2024-01-30T12:30:15;16.53;;;3.90;;
17488;SDS011;8861;52.644;4.734;2024-01-30T12:32:43;21.00;;;4.03;;
17488;SDS011;8861;52.644;4.734;2024-01-30T12:35:11;20.53;;;3.90;;
17488;SDS011;8861;52.644;4.734;2024-01-30T12:37:40;23.60;;;3.67;;
17488;SDS011;8861;52.644;4.734;2024-01-30T12:40:09;16.07;;;3.77;;
17488;SDS011;8861;52.644;4.734;2024-01-30T12:42:39;16.00;;;3.80;;
17488;SDS011;8861;52.644;4.734;2024-01-30T12:45:07;18.77;;;3.97;;
17488;SDS011;8861;52.644;4.734;2024-01-30T12:47:34;12.87;;;3.53;;
17488;SDS011;8861;52.644;4.734;2024-01-30T12:50:01;18.40;;;4.03;;
17488;SDS011;8861;52.644;4.734;2024-01-30T12:52:29;18.53;;;3.97;;
17488;SDS011;8861;52.644;4.734;2024-01-30T12:54:58;17.83;;;3.57;;
17488;SDS011;8861;52.644;4.734;2024-01-30T12:57:25;15.67;;;3.60;;
17488;SDS011;8861;52.644;4.734;2024-01-30T12:59:52;12.37;;;3.53;;
17488;SDS011;8861;52.644;4.734;2024-01-30T13:02:19;12.53;;;3.00;;
17488;SDS011;8861;52.644;4.734;2024-01-30T13:04:46;9.97;;;2.83;;
17488;SDS011;8861;52.644;4.734;2024-01-30T13:07:13;9.83;;;2.80;;
17488;SDS011;8861;52.644;4.734;2024-01-30T13:09:40;11.10;;;2.97;;
17488;SDS011;8861;52.644;4.734;2024-01-30T13:12:08;9.47;;;2.90;;
17488;SDS011;8861;52.644;4.734;2024-01-30T13:14:35;6.67;;;2.40;;
17488;SDS011;8861;52.644;4.734;2024-01-30T13:17:02;10.60;;;3.10;;
17488;SDS011;8861;52.644;4.734;2024-01-30T13:19:29;8.13;;;2.80;;
17488;SDS011;8861;52.644;4.734;2024-01-30T13:21:56;7.87;;;2.93;;
17488;SDS011;8861;52.644;4.734;2024-01-30T13:24:24;8.97;;;3.10;;
17488;SDS011;8861;52.644;4.734;2024-01-30T13:26:52;10.50;;;3.30;;
17488;SDS011;8861;52.644;4.734;2024-01-30T13:29:20;9.67;;;3.20;;
17488;SDS011;8861;52.644;4.734;2024-01-30T13:31:47;9.77;;;3.00;;
17488;SDS011;8861;52.644;4.734;2024-01-30T13:34:14;11.63;;;3.27;;
17488;SDS011;8861;52.644;4.734;2024-01-30T13:36:41;11.63;;;3.93;;
17488;SDS011;8861;52.644;4.734;2024-01-30T13:39:08;13.87;;;3.90;;
17488;SDS011;8861;52.644;4.734;2024-01-30T13:41:35;13.33;;;4.03;;
17488;SDS011;8861;52.644;4.734;2024-01-30T13:44:03;12.57;;;4.17;;
17488;SDS011;8861;52.644;4.734;2024-01-30T13:46:31;14.00;;;4.40;;
17488;SDS011;8861;52.644;4.734;2024-01-30T13:48:58;15.77;;;5.10;;
17488;SDS011;8861;52.644;4.734;2024-01-30T13:51:25;15.23;;;5.00;;
17488;SDS011;8861;52.644;4.734;2024-01-30T13:53:52;13.17;;;4.80;;
17488;SDS011;8861;52.644;4.734;2024-01-30T13:56:19;19.77;;;5.60;;
17488;SDS011;8861;52.644;4.734;2024-01-30T13:58:47;16.13;;;5.67;;
17488;SDS011;8861;52.644;4.734;2024-01-30T14:01:15;16.60;;;5.87;;
17488;SDS011;8861;52.644;4.734;2024-01-30T14:03:43;16.23;;;6.10;;
17488;SDS011;8861;52.644;4.734;2024-01-30T14:06:10;16.30;;;6.63;;
17488;SDS011;8861;52.644;4.734;2024-01-30T14:08:37;25.43;;;7.23;;
17488;SDS011;8861;52.644;4.734;2024-01-30T14:11:05;19.27;;;6.83;;
17488;SDS011;8861;52.644;4.734;2024-01-30T14:13:32;27.00;;;7.73;;
17488;SDS011;8861;52.644;4.734;2024-01-30T14:15:59;22.00;;;7.23;;
17488;SDS011;8861;52.644;4.734;2024-01-30T14:18:26;23.03;;;7.90;;
17488;SDS011;8861;52.644;4.734;2024-01-30T14:20:55;20.23;;;7.17;;
17488;SDS011;8861;52.644;4.734;2024-01-30T14:23:22;21.10;;;9.27;;
17488;SDS011;8861;52.644;4.734;2024-01-30T14:25:49;20.40;;;7.60;;
17488;SDS011;8861;52.644;4.734;2024-01-30T14:28:17;20.57;;;7.40;;
17488;SDS011;8861;52.644;4.734;2024-01-30T14:30:44;23.87;;;8.17;;
17488;SDS011;8861;52.644;4.734;2024-01-30T14:33:12;24.10;;;8.03;;
17488;SDS011;8861;52.644;4.734;2024-01-30T14:35:39;25.87;;;8.17;;
17488;SDS011;8861;52.644;4.734;2024-01-30T14:38:08;20.37;;;8.20;;
17488;SDS011;8861;52.644;4.734;2024-01-30T14:40:35;25.87;;;8.70;;
17488;SDS011;8861;52.644;4.734;2024-01-30T14:43:02;19.63;;;7.67;;